Time;durP1;ratioP1;P1;durP2;ratioP2;P2;SDS_P1;SDS_P2;PMS_P1;PMS_P2;Temp;Humidity;BMP_temperature;BMP_pressure;BME280_temperature;BME280_humidity;BME280_pressure;Samples;Min_cycle;Max_cycle;Signal;HPM_P1;HPM_P2
2022/01/13 00:01:55;;;;;;;23.00;15.27;;;0.60;99.90;;;;;;4997963;28;20266;-54
2022/01/13 00:04:21;;;;;;;20.55;15.38;;;0.30;99.90;;;;;;5004630;28;20180;-55
2022/01/13 00:06:47;;;;;;;22.80;16.43;;;0.10;99.90;;;;;;4997748;28;20191;-54
2022/01/13 00:09:14;;;;;;;23.60;16.65;;;0.10;99.90;;;;;;5000879;28;20227;-55
2022/01/13 00:11:39;;;;;;;22.70;16.17;;;0.10;99.90;;;;;;5004579;28;20219;-54
2022/01/13 00:21:37;;;;;;;20.88;16.77;;;0.20;99.90;;;;;;5007879;28;20277;-54
2022/01/13 00:24:05;;;;;;;25.15;16.10;;;0.40;99.90;;;;;;5006144;28;20660;-55
2022/01/13 00:26:33;;;;;;;22.15;16.45;;;0.50;99.90;;;;;;5002788;28;20218;-54
2022/01/13 00:29:01;;;;;;;24.83;16.35;;;0.60;99.90;;;;;;5015622;28;20590;-54
2022/01/13 00:31:31;;;;;;;22.77;15.80;;;0.50;99.90;;;;;;4994623;28;20175;-55
2022/01/13 00:34:03;;;;;;;20.02;15.00;;;0.60;99.90;;;;;;5011227;28;20574;-55
2022/01/13 00:36:31;;;;;;;21.20;15.32;;;0.50;99.90;;;;;;5009481;28;20222;-54
2022/01/13 00:38:57;;;;;;;20.67;16.02;;;0.80;99.90;;;;;;5004109;28;20183;-55
2022/01/13 00:41:27;;;;;;;23.80;15.68;;;0.90;99.90;;;;;;4993731;28;20187;-54
2022/01/13 00:43:54;;;;;;;20.92;16.17;;;0.10;99.90;;;;;;5004826;28;20210;-54
2022/01/13 00:46:25;;;;;;;22.23;15.88;;;0.80;99.90;;;;;;4999525;28;20551;-54
2022/01/13 00:48:53;;;;;;;24.23;18.25;;;0.60;99.90;;;;;;5015309;28;20178;-54
2022/01/13 00:51:21;;;;;;;23.35;17.35;;;0.50;99.90;;;;;;5019615;28;20219;-54
2022/01/13 00:53:47;;;;;;;22.65;17.20;;;0.80;99.90;;;;;;5002296;28;20239;-55
2022/01/13 00:56:13;;;;;;;23.30;17.42;;;0.80;99.90;;;;;;5010122;28;20192;-55
2022/01/13 00:58:39;;;;;;;21.93;17.90;;;0.20;99.90;;;;;;5014413;28;20190;-54
2022/01/13 01:01:06;;;;;;;24.52;17.90;;;0.80;99.90;;;;;;4993880;28;20208;-54
2022/01/13 01:03:33;;;;;;;24.55;18.15;;;0.90;99.90;;;;;;5023078;28;20183;-54
2022/01/13 01:06:00;;;;;;;22.05;17.63;;;1.10;99.90;;;;;;5006506;28;20187;-54
2022/01/13 01:08:27;;;;;;;25.58;17.70;;;0.70;99.90;;;;;;5003508;28;20176;-54
2022/01/13 01:10:55;;;;;;;21.80;17.33;;;0.70;99.90;;;;;;5004812;28;20203;-54
2022/01/13 01:13:26;;;;;;;22.02;17.70;;;0.70;99.90;;;;;;5010389;28;20277;-54
2022/01/13 01:15:55;;;;;;;20.48;15.60;;;1.00;99.90;;;;;;5008792;28;20187;-54
2022/01/13 01:21:36;;;;;;;23.13;17.27;;;0.90;99.90;;;;;;5003989;28;20298;-54
2022/01/13 01:31:48;;;;;;;22.13;17.15;;;1.10;99.90;;;;;;5000017;28;20281;-54
2022/01/13 01:37:01;;;;;;;26.70;18.98;;;1.20;99.90;;;;;;5006916;28;20186;-54
2022/01/13 01:39:26;;;;;;;24.35;18.63;;;1.10;99.90;;;;;;5004942;28;20653;-54
2022/01/13 01:41:55;;;;;;;27.40;19.03;;;1.10;99.90;;;;;;5002054;28;20245;-54
2022/01/13 01:44:33;;;;;;;29.65;20.70;;;1.00;99.90;;;;;;5004629;28;20441;-55
2022/01/13 01:47:00;;;;;;;28.35;20.35;;;1.00;99.90;;;;;;5000982;28;20270;-54
2022/01/13 01:49:26;;;;;;;23.58;18.70;;;1.10;99.90;;;;;;5002460;28;20215;-54
2022/01/13 01:51:57;;;;;;;24.27;18.42;;;1.30;99.90;;;;;;5024233;28;20218;-54
2022/01/13 01:54:23;;;;;;;24.23;19.27;;;1.20;99.90;;;;;;4998919;28;20211;-54
2022/01/13 01:56:49;;;;;;;24.27;18.63;;;1.20;99.90;;;;;;5007830;28;20187;-54
2022/01/13 01:59:19;;;;;;;25.23;19.60;;;1.20;99.90;;;;;;5015225;28;20222;-55
2022/01/13 02:01:46;;;;;;;23.38;18.67;;;1.10;99.90;;;;;;4999222;28;20449;-54
2022/01/13 02:04:13;;;;;;;23.70;17.90;;;0.70;99.90;;;;;;5003888;28;20188;-54
2022/01/13 02:06:39;;;;;;;23.70;18.17;;;1.20;99.90;;;;;;5017728;28;20695;-54
2022/01/13 02:09:09;;;;;;;21.58;17.88;;;1.20;99.90;;;;;;5001700;28;20203;-55
2022/01/13 02:11:42;;;;;;;26.83;19.92;;;1.40;99.90;;;;;;5005361;28;20188;-55
2022/01/13 02:14:56;;;;;;;24.30;18.40;;;1.60;99.90;;;;;;5019773;28;20202;-55
2022/01/13 02:17:11;;;;;;;29.15;19.40;;;1.40;99.90;;;;;;5003734;28;20195;-54
2022/01/13 02:19:42;;;;;;;24.38;17.85;;;1.40;99.90;;;;;;5004322;28;20207;-55
2022/01/13 02:22:08;;;;;;;26.08;17.70;;;1.70;99.90;;;;;;5005996;28;20186;-54
2022/01/13 02:24:35;;;;;;;25.30;17.80;;;1.80;99.90;;;;;;5001222;28;20824;-55
2022/01/13 02:27:02;;;;;;;24.98;18.95;;;1.60;99.90;;;;;;4997460;28;20229;-55
2022/01/13 02:29:27;;;;;;;29.98;19.40;;;1.70;99.90;;;;;;5013309;28;20222;-54
2022/01/13 02:31:53;;;;;;;24.90;18.20;;;1.60;99.90;;;;;;5008835;28;20199;-54
2022/01/13 02:34:20;;;;;;;23.70;18.10;;;1.80;99.90;;;;;;5020175;28;20244;-54
2022/01/13 02:36:52;;;;;;;24.92;19.05;;;1.70;99.90;;;;;;5008848;28;20497;-55
2022/01/13 02:39:17;;;;;;;32.50;19.60;;;1.80;99.90;;;;;;5005032;28;20673;-55
2022/01/13 02:41:44;;;;;;;29.43;20.73;;;1.70;99.90;;;;;;5010857;28;20195;-54
2022/01/13 02:44:19;;;;;;;27.40;18.90;;;1.10;99.90;;;;;;5010864;28;20215;-55
2022/01/13 02:49:16;;;;;;;24.25;18.50;;;1.10;99.90;;;;;;5013818;28;20652;-54
2022/01/13 02:51:44;;;;;;;25.20;18.98;;;1.50;99.90;;;;;;5008338;28;20200;-54
2022/01/13 02:54:10;;;;;;;23.08;17.92;;;1.80;99.90;;;;;;5004545;28;20215;-55
2022/01/13 02:56:36;;;;;;;24.93;18.70;;;1.10;99.90;;;;;;5010120;28;20187;-54
2022/01/13 02:59:03;;;;;;;24.15;18.25;;;1.80;99.90;;;;;;5011924;28;20479;-55
2022/01/13 03:01:29;;;;;;;26.70;19.88;;;1.70;99.90;;;;;;5007969;28;20191;-55
2022/01/13 03:03:55;;;;;;;26.00;19.30;;;1.60;99.90;;;;;;5015315;28;20194;-54
2022/01/13 03:06:28;;;;;;;25.53;19.70;;;1.50;99.90;;;;;;5008925;28;20195;-54
2022/01/13 03:08:54;;;;;;;22.98;18.10;;;1.40;99.90;;;;;;4999385;28;20210;-54
2022/01/13 03:11:24;;;;;;;24.57;18.60;;;1.40;99.90;;;;;;5008159;28;20285;-54
2022/01/13 03:13:49;;;;;;;24.83;18.80;;;1.60;99.90;;;;;;5024385;28;20264;-55
2022/01/13 03:16:15;;;;;;;22.97;19.47;;;1.10;99.90;;;;;;5001777;28;20221;-54
2022/01/13 03:18:41;;;;;;;26.02;19.83;;;1.40;99.90;;;;;;5015598;28;20402;-54
2022/01/13 03:21:08;;;;;;;25.65;19.40;;;1.40;99.90;;;;;;5012659;28;20209;-54
2022/01/13 03:23:35;;;;;;;26.83;20.02;;;1.50;99.90;;;;;;5011631;28;20558;-54
2022/01/13 03:26:01;;;;;;;28.35;20.35;;;0.90;99.90;;;;;;5009367;28;20180;-55
2022/01/13 03:28:31;;;;;;;26.83;20.45;;;1.60;99.90;;;;;;5007833;28;20697;-54
2022/01/13 03:31:02;;;;;;;24.50;18.30;;;1.30;99.90;;;;;;4998171;28;20218;-55
2022/01/13 03:33:28;;;;;;;24.38;20.15;;;1.60;99.90;;;;;;5007164;28;20286;-55
2022/01/13 03:35:56;;;;;;;25.67;19.33;;;1.70;99.90;;;;;;5016104;28;20194;-54
2022/01/13 03:38:22;;;;;;;23.95;17.80;;;0.90;99.90;;;;;;5012279;28;21760;-55
2022/01/13 03:40:48;;;;;;;23.83;18.45;;;1.20;99.90;;;;;;4998860;28;20207;-54
2022/01/13 03:43:16;;;;;;;33.95;23.95;;;1.80;99.90;;;;;;5003589;28;20209;-54
2022/01/13 03:45:42;;;;;;;22.90;17.55;;;1.50;99.90;;;;;;5014641;28;20187;-54
2022/01/13 03:48:09;;;;;;;24.60;19.97;;;1.40;99.90;;;;;;5009304;28;20184;-54
2022/01/13 03:50:35;;;;;;;25.48;18.80;;;1.60;99.90;;;;;;5011703;28;20465;-54
2022/01/13 03:53:01;;;;;;;24.67;18.00;;;1.00;99.90;;;;;;5003667;28;20191;-54
2022/01/13 03:55:36;;;;;;;29.17;19.90;;;1.60;99.90;;;;;;4999957;28;20203;-54
2022/01/13 03:58:30;;;;;;;25.67;18.38;;;1.70;99.90;;;;;;4999016;28;20507;-55
2022/01/13 04:01:33;;;;;;;26.42;19.10;;;1.50;99.90;;;;;;5000825;28;20246;-55
2022/01/13 04:03:58;;;;;;;27.35;19.52;;;1.60;99.90;;;;;;4999834;28;20203;-54
2022/01/13 04:06:24;;;;;;;24.47;18.53;;;1.80;99.90;;;;;;5017760;28;21921;-55
2022/01/13 04:08:53;;;;;;;25.70;18.93;;;1.70;99.90;;;;;;5006971;28;20198;-55
2022/01/13 04:11:25;;;;;;;25.65;19.15;;;1.80;99.90;;;;;;5019878;28;20626;-55
2022/01/13 04:13:56;;;;;;;23.95;17.70;;;1.80;99.90;;;;;;5008976;28;20207;-54
2022/01/13 04:16:31;;;;;;;23.35;18.75;;;1.00;99.90;;;;;;5002049;28;20667;-54
2022/01/13 04:19:02;;;;;;;23.73;16.77;;;2.00;99.90;;;;;;5010597;28;20195;-55
2022/01/13 04:21:28;;;;;;;22.48;17.17;;;2.00;99.90;;;;;;4999891;28;20178;-55
2022/01/13 04:23:56;;;;;;;23.23;16.90;;;2.20;99.90;;;;;;5000380;28;20192;-54
2022/01/13 04:26:27;;;;;;;22.30;17.85;;;1.90;99.90;;;;;;5004702;28;20986;-55
2022/01/13 04:29:48;;;;;;;22.45;17.23;;;1.80;99.90;;;;;;5008370;28;21805;-55
2022/01/13 04:31:50;;;;;;;25.40;16.48;;;2.10;99.90;;;;;;4983343;28;20286;-54
2022/01/13 04:34:17;;;;;;;24.85;17.52;;;1.90;99.90;;;;;;4990501;28;22528;-55
2022/01/13 04:36:44;;;;;;;20.85;16.67;;;1.80;99.90;;;;;;5001470;28;20584;-55
2022/01/13 04:39:14;;;;;;;23.75;18.67;;;1.20;99.90;;;;;;5011524;28;20183;-55
2022/01/13 04:41:40;;;;;;;23.83;18.67;;;1.20;99.90;;;;;;5012344;28;20241;-54
2022/01/13 04:44:08;;;;;;;27.38;18.00;;;1.50;99.90;;;;;;5005008;28;20608;-55
2022/01/13 04:46:35;;;;;;;26.33;18.08;;;1.70;99.90;;;;;;4992543;28;20191;-54
2022/01/13 04:49:01;;;;;;;24.38;16.92;;;1.40;99.90;;;;;;4997297;28;20258;-54
2022/01/13 04:51:30;;;;;;;27.77;18.30;;;1.30;99.90;;;;;;5007716;28;20183;-55
2022/01/13 04:53:55;;;;;;;23.88;17.73;;;1.60;99.90;;;;;;5004744;28;20466;-55
2022/01/13 04:56:31;;;;;;;25.63;18.70;;;1.70;99.90;;;;;;4997404;28;20233;-54
2022/01/13 04:58:58;;;;;;;24.48;17.55;;;1.80;99.90;;;;;;5009933;28;20439;-54
2022/01/13 05:01:24;;;;;;;23.02;17.67;;;1.50;99.90;;;;;;4990290;28;20229;-55
2022/01/13 05:03:50;;;;;;;26.98;18.75;;;1.80;99.90;;;;;;5022482;28;20198;-55
2022/01/13 05:06:19;;;;;;;25.60;18.50;;;1.70;99.90;;;;;;5014899;28;20191;-54
2022/01/13 05:08:49;;;;;;;23.92;18.33;;;1.40;99.90;;;;;;5014722;28;20201;-54
2022/01/13 05:11:16;;;;;;;32.95;23.08;;;1.50;99.90;;;;;;5004920;28;20242;-55
2022/01/13 05:13:43;;;;;;;23.58;18.92;;;2.20;99.90;;;;;;5009734;28;20312;-54
2022/01/13 05:16:17;;;;;;;26.65;19.17;;;1.60;99.90;;;;;;5004740;28;20283;-55
2022/01/13 05:18:50;;;;;;;26.77;18.52;;;2.40;99.90;;;;;;5005737;28;20186;-55
2022/01/13 05:21:22;;;;;;;25.10;18.15;;;2.30;99.90;;;;;;5013442;28;20680;-54
2022/01/13 05:23:49;;;;;;;24.90;19.38;;;2.40;99.90;;;;;;5002254;28;20191;-55
2022/01/13 05:26:15;;;;;;;25.33;19.05;;;2.00;99.90;;;;;;4993664;28;20292;-54
2022/01/13 05:28:41;;;;;;;26.77;19.52;;;1.70;99.90;;;;;;5003792;28;20179;-55
2022/01/13 05:31:07;;;;;;;24.70;19.37;;;2.40;99.90;;;;;;5004617;28;20673;-54
2022/01/13 05:33:33;;;;;;;27.70;19.50;;;2.20;99.90;;;;;;5004941;28;20457;-54
2022/01/13 05:36:00;;;;;;;25.77;18.27;;;2.00;99.90;;;;;;5013156;28;20186;-54
2022/01/13 05:38:27;;;;;;;25.20;19.17;;;2.20;99.90;;;;;;4998645;28;20744;-54
2022/01/13 05:40:53;;;;;;;27.05;19.25;;;2.30;99.90;;;;;;5008793;28;20297;-55
2022/01/13 05:43:19;;;;;;;22.88;17.42;;;2.20;99.90;;;;;;5014376;28;20249;-55
2022/01/13 05:45:45;;;;;;;22.50;17.57;;;2.30;99.90;;;;;;5003727;28;20191;-55
2022/01/13 05:48:11;;;;;;;23.95;17.48;;;2.20;99.90;;;;;;5007710;28;20991;-54
2022/01/13 05:50:37;;;;;;;24.20;18.67;;;2.20;99.90;;;;;;5014821;28;20215;-54
2022/01/13 05:53:04;;;;;;;23.48;17.65;;;1.60;99.90;;;;;;5012419;28;20285;-54
2022/01/13 05:55:30;;;;;;;23.70;19.00;;;2.00;99.90;;;;;;5004038;28;20450;-54
2022/01/13 05:57:55;;;;;;;25.93;18.70;;;2.30;99.90;;;;;;5015835;28;20653;-55
2022/01/13 06:00:22;;;;;;;20.97;17.30;;;2.30;99.90;;;;;;5009133;28;20230;-55
2022/01/13 06:02:48;;;;;;;24.65;18.80;;;2.30;99.90;;;;;;5002799;28;20584;-54
2022/01/13 06:05:14;;;;;;;24.97;18.93;;;2.50;99.90;;;;;;5009628;28;20282;-54
2022/01/13 06:07:40;;;;;;;23.10;18.00;;;1.70;99.90;;;;;;5010978;28;20442;-55
2022/01/13 06:10:09;;;;;;;26.38;17.63;;;1.70;99.90;;;;;;5015602;28;20310;-54
2022/01/13 06:12:38;;;;;;;22.85;18.80;;;2.30;99.90;;;;;;5010972;28;20226;-54
2022/01/13 06:15:12;;;;;;;23.58;18.55;;;2.30;99.90;;;;;;5007888;28;20222;-54
2022/01/13 06:17:39;;;;;;;22.27;17.60;;;2.50;99.90;;;;;;5005776;28;20218;-54
2022/01/13 06:20:06;;;;;;;25.33;17.15;;;2.10;99.90;;;;;;4996884;28;20203;-54
2022/01/13 06:22:32;;;;;;;20.42;17.48;;;2.50;99.90;;;;;;5015827;28;20182;-55
2022/01/13 06:24:57;;;;;;;23.33;17.63;;;2.40;99.90;;;;;;5001800;28;20191;-55
2022/01/13 06:27:23;;;;;;;23.03;17.60;;;2.70;99.90;;;;;;5013986;28;20434;-55
2022/01/13 06:29:51;;;;;;;27.40;19.47;;;2.70;99.90;;;;;;5009518;28;20301;-55
2022/01/13 06:32:17;;;;;;;23.25;18.13;;;2.50;99.90;;;;;;5015809;28;20264;-55
2022/01/13 06:34:43;;;;;;;23.92;18.90;;;2.40;99.90;;;;;;5016556;28;20236;-55
2022/01/13 06:37:08;;;;;;;23.57;18.80;;;2.30;99.90;;;;;;5000427;28;20187;-55
